sensor_id;sensor_type;location;lat;lon;timestamp;P1;durP1;ratioP1;P2;durP2;ratioP2
68449;SDS011;67758;39.572;2.652;2023-07-31T00:00:07;10.18;;;2.80;;
68449;SDS011;67758;39.572;2.652;2023-07-31T00:02:36;12.83;;;3.17;;
68449;SDS011;67758;39.572;2.652;2023-07-31T00:05:02;10.27;;;2.92;;
68449;SDS011;67758;39.572;2.652;2023-07-31T00:07:27;7.65;;;2.97;;
68449;SDS011;67758;39.572;2.652;2023-07-31T00:09:53;11.40;;;3.30;;
68449;SDS011;67758;39.572;2.652;2023-07-31T00:12:21;11.23;;;3.50;;
68449;SDS011;67758;39.572;2.652;2023-07-31T00:14:48;10.18;;;2.90;;
68449;SDS011;67758;39.572;2.652;2023-07-31T00:17:14;7.72;;;2.95;;
68449;SDS011;67758;39.572;2.652;2023-07-31T00:19:39;9.82;;;3.22;;
68449;SDS011;67758;39.572;2.652;2023-07-31T00:22:05;12.00;;;2.90;;
68449;SDS011;67758;39.572;2.652;2023-07-31T00:24:31;7.43;;;2.90;;
68449;SDS011;67758;39.572;2.652;2023-07-31T00:26:56;10.73;;;3.25;;
68449;SDS011;67758;39.572;2.652;2023-07-31T00:29:22;9.10;;;3.47;;
68449;SDS011;67758;39.572;2.652;2023-07-31T00:31:48;12.32;;;3.80;;
68449;SDS011;67758;39.572;2.652;2023-07-31T00:34:13;9.40;;;2.83;;
68449;SDS011;67758;39.572;2.652;2023-07-31T00:36:39;7.93;;;2.97;;
68449;SDS011;67758;39.572;2.652;2023-07-31T00:39:04;9.73;;;3.08;;
68449;SDS011;67758;39.572;2.652;2023-07-31T00:41:30;10.10;;;2.60;;
68449;SDS011;67758;39.572;2.652;2023-07-31T00:43:56;12.27;;;3.05;;
68449;SDS011;67758;39.572;2.652;2023-07-31T00:46:21;11.67;;;2.50;;
68449;SDS011;67758;39.572;2.652;2023-07-31T00:48:47;12.00;;;3.50;;
68449;SDS011;67758;39.572;2.652;2023-07-31T00:51:14;14.40;;;4.30;;
68449;SDS011;67758;39.572;2.652;2023-07-31T00:53:40;13.02;;;4.18;;
68449;SDS011;67758;39.572;2.652;2023-07-31T00:56:06;11.63;;;4.25;;
68449;SDS011;67758;39.572;2.652;2023-07-31T00:58:31;15.33;;;4.63;;
68449;SDS011;67758;39.572;2.652;2023-07-31T01:00:57;10.15;;;4.40;;
68449;SDS011;67758;39.572;2.652;2023-07-31T01:03:23;11.20;;;4.37;;
68449;SDS011;67758;39.572;2.652;2023-07-31T01:05:51;10.88;;;4.57;;
68449;SDS011;67758;39.572;2.652;2023-07-31T01:08:43;11.60;;;4.57;;
68449;SDS011;67758;39.572;2.652;2023-07-31T01:11:25;9.90;;;4.55;;
68449;SDS011;67758;39.572;2.652;2023-07-31T01:13:56;9.53;;;4.27;;
68449;SDS011;67758;39.572;2.652;2023-07-31T01:16:23;10.20;;;4.47;;
68449;SDS011;67758;39.572;2.652;2023-07-31T01:18:50;9.38;;;4.00;;
68449;SDS011;67758;39.572;2.652;2023-07-31T01:21:21;12.35;;;4.47;;
68449;SDS011;67758;39.572;2.652;2023-07-31T01:27:21;10.10;;;4.40;;
68449;SDS011;67758;39.572;2.652;2023-07-31T01:32:28;11.93;;;4.25;;
68449;SDS011;67758;39.572;2.652;2023-07-31T01:34:54;8.93;;;4.80;;
68449;SDS011;67758;39.572;2.652;2023-07-31T01:37:21;8.63;;;4.00;;
68449;SDS011;67758;39.572;2.652;2023-07-31T01:39:51;11.47;;;4.07;;
68449;SDS011;67758;39.572;2.652;2023-07-31T01:42:17;8.65;;;4.60;;
68449;SDS011;67758;39.572;2.652;2023-07-31T01:44:42;11.83;;;4.50;;
68449;SDS011;67758;39.572;2.652;2023-07-31T01:47:08;14.52;;;4.47;;
68449;SDS011;67758;39.572;2.652;2023-07-31T01:49:34;12.80;;;4.45;;
68449;SDS011;67758;39.572;2.652;2023-07-31T01:51:59;10.73;;;4.13;;
68449;SDS011;67758;39.572;2.652;2023-07-31T01:54:25;8.57;;;3.88;;
68449;SDS011;67758;39.572;2.652;2023-07-31T01:56:50;14.57;;;4.70;;
68449;SDS011;67758;39.572;2.652;2023-07-31T01:59:16;10.07;;;4.27;;
68449;SDS011;67758;39.572;2.652;2023-07-31T02:01:42;11.95;;;4.22;;
68449;SDS011;67758;39.572;2.652;2023-07-31T02:04:07;12.77;;;4.70;;
68449;SDS011;67758;39.572;2.652;2023-07-31T02:06:33;9.27;;;3.50;;
68449;SDS011;67758;39.572;2.652;2023-07-31T02:08:58;10.65;;;4.03;;
68449;SDS011;67758;39.572;2.652;2023-07-31T02:11:24;9.47;;;3.90;;
68449;SDS011;67758;39.572;2.652;2023-07-31T02:13:50;9.43;;;3.70;;
68449;SDS011;67758;39.572;2.652;2023-07-31T02:16:15;9.93;;;3.63;;
68449;SDS011;67758;39.572;2.652;2023-07-31T02:18:41;9.13;;;3.57;;
68449;SDS011;67758;39.572;2.652;2023-07-31T02:21:06;14.15;;;4.47;;
68449;SDS011;67758;39.572;2.652;2023-07-31T02:23:32;11.63;;;4.27;;
68449;SDS011;67758;39.572;2.652;2023-07-31T02:25:57;9.77;;;4.17;;
68449;SDS011;67758;39.572;2.652;2023-07-31T02:28:23;9.65;;;3.78;;
68449;SDS011;67758;39.572;2.652;2023-07-31T02:30:50;9.83;;;4.27;;
68449;SDS011;67758;39.572;2.652;2023-07-31T02:33:15;12.60;;;4.72;;
68449;SDS011;67758;39.572;2.652;2023-07-31T02:35:41;10.50;;;4.95;;
68449;SDS011;67758;39.572;2.652;2023-07-31T02:38:07;11.60;;;4.57;;
68449;SDS011;67758;39.572;2.652;2023-07-31T02:40:32;13.10;;;5.70;;
68449;SDS011;67758;39.572;2.652;2023-07-31T02:42:58;15.07;;;5.40;;
68449;SDS011;67758;39.572;2.652;2023-07-31T02:45:24;13.27;;;5.00;;
68449;SDS011;67758;39.572;2.652;2023-07-31T02:47:49;13.50;;;5.93;;
68449;SDS011;67758;39.572;2.652;2023-07-31T02:50:15;11.63;;;5.47;;
68449;SDS011;67758;39.572;2.652;2023-07-31T02:52:40;15.13;;;6.40;;
68449;SDS011;67758;39.572;2.652;2023-07-31T02:55:06;17.90;;;5.85;;
68449;SDS011;67758;39.572;2.652;2023-07-31T02:57:32;13.80;;;5.83;;
68449;SDS011;67758;39.572;2.652;2023-07-31T02:59:57;15.45;;;6.72;;
68449;SDS011;67758;39.572;2.652;2023-07-31T03:02:23;15.90;;;6.33;;
68449;SDS011;67758;39.572;2.652;2023-07-31T03:04:49;11.93;;;5.53;;
68449;SDS011;67758;39.572;2.652;2023-07-31T03:07:14;12.90;;;5.93;;
68449;SDS011;67758;39.572;2.652;2023-07-31T03:09:40;11.10;;;5.50;;
68449;SDS011;67758;39.572;2.652;2023-07-31T03:12:06;14.40;;;5.70;;
68449;SDS011;67758;39.572;2.652;2023-07-31T03:14:32;12.38;;;5.75;;
68449;SDS011;67758;39.572;2.652;2023-07-31T03:16:57;16.00;;;5.80;;
68449;SDS011;67758;39.572;2.652;2023-07-31T03:19:24;14.93;;;5.53;;
68449;SDS011;67758;39.572;2.652;2023-07-31T03:21:50;12.50;;;6.00;;
68449;SDS011;67758;39.572;2.652;2023-07-31T03:24:15;12.70;;;5.72;;
68449;SDS011;67758;39.572;2.652;2023-07-31T03:26:41;13.83;;;5.63;;
68449;SDS011;67758;39.572;2.652;2023-07-31T03:29:07;13.00;;;5.33;;
68449;SDS011;67758;39.572;2.652;2023-07-31T03:31:33;14.10;;;5.60;;
68449;SDS011;67758;39.572;2.652;2023-07-31T03:33:59;11.45;;;5.75;;
68449;SDS011;67758;39.572;2.652;2023-07-31T03:36:24;9.27;;;4.80;;
68449;SDS011;67758;39.572;2.652;2023-07-31T03:38:51;13.70;;;6.28;;
68449;SDS011;67758;39.572;2.652;2023-07-31T03:41:17;13.90;;;5.43;;
68449;SDS011;67758;39.572;2.652;2023-07-31T03:43:42;14.75;;;5.75;;
68449;SDS011;67758;39.572;2.652;2023-07-31T03:46:08;15.30;;;6.20;;
68449;SDS011;67758;39.572;2.652;2023-07-31T03:48:34;16.85;;;6.45;;
68449;SDS011;67758;39.572;2.652;2023-07-31T03:50:59;14.90;;;5.87;;
68449;SDS011;67758;39.572;2.652;2023-07-31T03:53:25;17.77;;;5.63;;
68449;SDS011;67758;39.572;2.652;2023-07-31T03:55:50;10.80;;;5.93;;
68449;SDS011;67758;39.572;2.652;2023-07-31T03:58:16;15.90;;;6.37;;
68449;SDS011;67758;39.572;2.652;2023-07-31T04:00:42;12.90;;;5.97;;
68449;SDS011;67758;39.572;2.652;2023-07-31T04:03:07;13.75;;;5.63;;
68449;SDS011;67758;39.572;2.652;2023-07-31T04:05:33;12.90;;;6.03;;
68449;SDS011;67758;39.572;2.652;2023-07-31T04:08:02;13.60;;;5.60;;
68449;SDS011;67758;39.572;2.652;2023-07-31T04:10:28;13.73;;;5.97;;
68449;SDS011;67758;39.572;2.652;2023-07-31T04:12:55;10.70;;;6.20;;
68449;SDS011;67758;39.572;2.652;2023-07-31T04:15:20;15.63;;;6.68;;
68449;SDS011;67758;39.572;2.652;2023-07-31T04:17:46;13.83;;;6.20;;
68449;SDS011;67758;39.572;2.652;2023-07-31T04:20:11;11.53;;;6.23;;
68449;SDS011;67758;39.572;2.652;2023-07-31T04:22:37;14.60;;;5.97;;
68449;SDS011;67758;39.572;2.652;2023-07-31T04:25:02;13.27;;;5.83;;
68449;SDS011;67758;39.572;2.652;2023-07-31T04:27:28;13.13;;;5.80;;
68449;SDS011;67758;39.572;2.652;2023-07-31T04:29:54;17.52;;;7.22;;
68449;SDS011;67758;39.572;2.652;2023-07-31T04:32:19;12.27;;;5.97;;
68449;SDS011;67758;39.572;2.652;2023-07-31T04:34:46;12.55;;;5.97;;
68449;SDS011;67758;39.572;2.652;2023-07-31T04:37:11;11.47;;;5.13;;
68449;SDS011;67758;39.572;2.652;2023-07-31T04:39:37;12.38;;;5.53;;
68449;SDS011;67758;39.572;2.652;2023-07-31T04:42:03;11.33;;;5.63;;
68449;SDS011;67758;39.572;2.652;2023-07-31T04:44:28;11.80;;;5.57;;
68449;SDS011;67758;39.572;2.652;2023-07-31T04:46:55;13.38;;;5.82;;
68449;SDS011;67758;39.572;2.652;2023-07-31T04:49:20;14.07;;;5.37;;
68449;SDS011;67758;39.572;2.652;2023-07-31T04:51:47;13.38;;;5.75;;
68449;SDS011;67758;39.572;2.652;2023-07-31T04:54:12;13.40;;;5.90;;
68449;SDS011;67758;39.572;2.652;2023-07-31T04:56:40;10.57;;;5.20;;
68449;SDS011;67758;39.572;2.652;2023-07-31T04:59:06;11.93;;;5.32;;
68449;SDS011;67758;39.572;2.652;2023-07-31T05:01:32;14.32;;;5.80;;
68449;SDS011;67758;39.572;2.652;2023-07-31T05:03:57;15.53;;;5.73;;
68449;SDS011;67758;39.572;2.652;2023-07-31T05:06:23;11.03;;;5.33;;
68449;SDS011;67758;39.572;2.652;2023-07-31T05:08:49;13.27;;;5.60;;
68449;SDS011;67758;39.572;2.652;2023-07-31T05:11:14;15.20;;;5.70;;
68449;SDS011;67758;39.572;2.652;2023-07-31T05:13:40;9.60;;;4.18;;
68449;SDS011;67758;39.572;2.652;2023-07-31T05:16:06;15.85;;;7.80;;
68449;SDS011;67758;39.572;2.652;2023-07-31T05:18:32;26.35;;;16.35;;
68449;SDS011;67758;39.572;2.652;2023-07-31T05:20:57;16.90;;;7.23;;
68449;SDS011;67758;39.572;2.652;2023-07-31T05:23:23;17.35;;;8.57;;
68449;SDS011;67758;39.572;2.652;2023-07-31T05:25:48;13.57;;;5.27;;
68449;SDS011;67758;39.572;2.652;2023-07-31T05:28:14;12.87;;;4.67;;
68449;SDS011;67758;39.572;2.652;2023-07-31T05:30:39;14.60;;;5.38;;
68449;SDS011;67758;39.572;2.652;2023-07-31T05:33:05;29.93;;;6.87;;
68449;SDS011;67758;39.572;2.652;2023-07-31T05:35:31;39.78;;;6.85;;
68449;SDS011;67758;39.572;2.652;2023-07-31T05:37:56;18.00;;;5.50;;
68449;SDS011;67758;39.572;2.652;2023-07-31T05:40:22;16.07;;;5.30;;
68449;SDS011;67758;39.572;2.652;2023-07-31T05:42:47;13.20;;;4.68;;
68449;SDS011;67758;39.572;2.652;2023-07-31T05:45:13;12.05;;;4.60;;
68449;SDS011;67758;39.572;2.652;2023-07-31T05:47:39;12.53;;;4.83;;
68449;SDS011;67758;39.572;2.652;2023-07-31T05:50:05;10.63;;;4.45;;
68449;SDS011;67758;39.572;2.652;2023-07-31T05:52:31;12.90;;;5.05;;
68449;SDS011;67758;39.572;2.652;2023-07-31T05:54:56;17.03;;;5.60;;
68449;SDS011;67758;39.572;2.652;2023-07-31T05:57:22;10.57;;;4.28;;
68449;SDS011;67758;39.572;2.652;2023-07-31T05:59:47;14.47;;;4.67;;
68449;SDS011;67758;39.572;2.652;2023-07-31T06:02:13;10.53;;;4.77;;
68449;SDS011;67758;39.572;2.652;2023-07-31T06:04:39;13.93;;;5.20;;
68449;SDS011;67758;39.572;2.652;2023-07-31T06:07:04;14.53;;;5.33;;
68449;SDS011;67758;39.572;2.652;2023-07-31T06:09:30;16.02;;;5.72;;
68449;SDS011;67758;39.572;2.652;2023-07-31T06:11:56;13.70;;;5.10;;
68449;SDS011;67758;39.572;2.652;2023-07-31T06:14:22;17.77;;;5.78;;
68449;SDS011;67758;39.572;2.652;2023-07-31T06:16:47;17.77;;;6.53;;
68449;SDS011;67758;39.572;2.652;2023-07-31T06:19:13;19.45;;;7.28;;
68449;SDS011;67758;39.572;2.652;2023-07-31T06:21:38;10.93;;;5.43;;
68449;SDS011;67758;39.572;2.652;2023-07-31T06:24:07;9.75;;;5.00;;
68449;SDS011;67758;39.572;2.652;2023-07-31T06:26:33;10.18;;;4.90;;
68449;SDS011;67758;39.572;2.652;2023-07-31T06:28:59;11.20;;;4.57;;
68449;SDS011;67758;39.572;2.652;2023-07-31T06:31:24;10.60;;;5.10;;
68449;SDS011;67758;39.572;2.652;2023-07-31T06:33:51;11.38;;;5.28;;
68449;SDS011;67758;39.572;2.652;2023-07-31T06:36:17;10.50;;;5.15;;
68449;SDS011;67758;39.572;2.652;2023-07-31T06:38:45;11.93;;;4.88;;
68449;SDS011;67758;39.572;2.652;2023-07-31T06:41:10;14.23;;;5.75;;
68449;SDS011;67758;39.572;2.652;2023-07-31T06:43:36;8.23;;;4.37;;
68449;SDS011;67758;39.572;2.652;2023-07-31T06:46:05;11.93;;;4.68;;
68449;SDS011;67758;39.572;2.652;2023-07-31T06:48:32;10.13;;;5.05;;
68449;SDS011;67758;39.572;2.652;2023-07-31T06:50:58;11.93;;;4.60;;
68449;SDS011;67758;39.572;2.652;2023-07-31T06:53:25;11.48;;;4.82;;
68449;SDS011;67758;39.572;2.652;2023-07-31T06:55:51;12.98;;;4.50;;
68449;SDS011;67758;39.572;2.652;2023-07-31T06:58:17;13.20;;;5.13;;
68449;SDS011;67758;39.572;2.652;2023-07-31T07:00:42;10.68;;;4.90;;
68449;SDS011;67758;39.572;2.652;2023-07-31T07:03:08;11.10;;;4.80;;
68449;SDS011;67758;39.572;2.652;2023-07-31T07:05:34;8.38;;;4.20;;
68449;SDS011;67758;39.572;2.652;2023-07-31T07:07:59;13.30;;;4.90;;
68449;SDS011;67758;39.572;2.652;2023-07-31T07:10:25;10.35;;;4.28;;
68449;SDS011;67758;39.572;2.652;2023-07-31T07:12:51;11.60;;;4.53;;
68449;SDS011;67758;39.572;2.652;2023-07-31T07:15:16;11.00;;;4.82;;
68449;SDS011;67758;39.572;2.652;2023-07-31T07:17:42;11.73;;;4.93;;
68449;SDS011;67758;39.572;2.652;2023-07-31T07:20:08;10.43;;;3.83;;
68449;SDS011;67758;39.572;2.652;2023-07-31T07:22:33;12.93;;;4.27;;
68449;SDS011;67758;39.572;2.652;2023-07-31T07:24:59;8.80;;;4.05;;
68449;SDS011;67758;39.572;2.652;2023-07-31T07:27:25;14.70;;;5.10;;
68449;SDS011;67758;39.572;2.652;2023-07-31T07:29:51;10.27;;;4.43;;
68449;SDS011;67758;39.572;2.652;2023-07-31T07:32:18;12.30;;;4.72;;
68449;SDS011;67758;39.572;2.652;2023-07-31T07:34:43;12.60;;;4.20;;
68449;SDS011;67758;39.572;2.652;2023-07-31T07:37:09;7.10;;;4.10;;
68449;SDS011;67758;39.572;2.652;2023-07-31T07:39:34;12.17;;;4.33;;
68449;SDS011;67758;39.572;2.652;2023-07-31T07:42:00;12.55;;;4.90;;
68449;SDS011;67758;39.572;2.652;2023-07-31T07:44:28;9.50;;;4.47;;
68449;SDS011;67758;39.572;2.652;2023-07-31T07:46:54;13.15;;;4.68;;
68449;SDS011;67758;39.572;2.652;2023-07-31T07:49:20;11.43;;;4.40;;
68449;SDS011;67758;39.572;2.652;2023-07-31T07:51:48;11.32;;;4.53;;
68449;SDS011;67758;39.572;2.652;2023-07-31T07:54:13;10.73;;;4.68;;
68449;SDS011;67758;39.572;2.652;2023-07-31T07:56:39;13.07;;;5.13;;
68449;SDS011;67758;39.572;2.652;2023-07-31T07:59:05;14.10;;;4.60;;
68449;SDS011;67758;39.572;2.652;2023-07-31T08:01:30;11.53;;;4.50;;
68449;SDS011;67758;39.572;2.652;2023-07-31T08:03:56;11.03;;;4.80;;
68449;SDS011;67758;39.572;2.652;2023-07-31T08:06:23;9.40;;;4.70;;
68449;SDS011;67758;39.572;2.652;2023-07-31T08:08:49;16.67;;;6.55;;
68449;SDS011;67758;39.572;2.652;2023-07-31T08:11:15;14.00;;;5.97;;
68449;SDS011;67758;39.572;2.652;2023-07-31T08:13:40;13.47;;;4.40;;
68449;SDS011;67758;39.572;2.652;2023-07-31T08:16:06;13.17;;;4.70;;
68449;SDS011;67758;39.572;2.652;2023-07-31T08:18:31;11.93;;;5.05;;
68449;SDS011;67758;39.572;2.652;2023-07-31T08:20:57;9.10;;;4.45;;
68449;SDS011;67758;39.572;2.652;2023-07-31T08:23:24;11.17;;;5.27;;
68449;SDS011;67758;39.572;2.652;2023-07-31T08:25:49;12.65;;;3.97;;
68449;SDS011;67758;39.572;2.652;2023-07-31T08:28:16;9.38;;;3.95;;
68449;SDS011;67758;39.572;2.652;2023-07-31T08:30:42;11.47;;;4.80;;
68449;SDS011;67758;39.572;2.652;2023-07-31T08:33:07;8.55;;;4.22;;
68449;SDS011;67758;39.572;2.652;2023-07-31T08:35:33;11.90;;;5.23;;
68449;SDS011;67758;39.572;2.652;2023-07-31T08:37:59;11.45;;;4.55;;
68449;SDS011;67758;39.572;2.652;2023-07-31T08:40:25;15.68;;;5.78;;
68449;SDS011;67758;39.572;2.652;2023-07-31T08:42:53;10.55;;;3.95;;
68449;SDS011;67758;39.572;2.652;2023-07-31T08:45:22;10.88;;;3.80;;
68449;SDS011;67758;39.572;2.652;2023-07-31T08:47:51;12.15;;;5.28;;
68449;SDS011;67758;39.572;2.652;2023-07-31T08:50:17;12.10;;;4.45;;
68449;SDS011;67758;39.572;2.652;2023-07-31T08:52:45;10.27;;;4.17;;
68449;SDS011;67758;39.572;2.652;2023-07-31T08:55:11;11.35;;;4.43;;
68449;SDS011;67758;39.572;2.652;2023-07-31T08:57:37;9.48;;;3.80;;
68449;SDS011;67758;39.572;2.652;2023-07-31T09:00:04;10.93;;;4.20;;
68449;SDS011;67758;39.572;2.652;2023-07-31T09:02:34;14.45;;;4.30;;
68449;SDS011;67758;39.572;2.652;2023-07-31T09:05:23;11.80;;;4.30;;
68449;SDS011;67758;39.572;2.652;2023-07-31T09:07:49;15.45;;;4.30;;
68449;SDS011;67758;39.572;2.652;2023-07-31T09:10:16;15.80;;;4.88;;
68449;SDS011;67758;39.572;2.652;2023-07-31T09:12:42;11.67;;;4.30;;
68449;SDS011;67758;39.572;2.652;2023-07-31T09:15:08;11.25;;;4.07;;
68449;SDS011;67758;39.572;2.652;2023-07-31T09:17:35;11.55;;;4.25;;
68449;SDS011;67758;39.572;2.652;2023-07-31T09:22:46;8.77;;;4.28;;
68449;SDS011;67758;39.572;2.652;2023-07-31T09:25:15;14.15;;;3.92;;
68449;SDS011;67758;39.572;2.652;2023-07-31T09:27:54;11.85;;;4.13;;
68449;SDS011;67758;39.572;2.652;2023-07-31T09:30:22;9.27;;;4.65;;
68449;SDS011;67758;39.572;2.652;2023-07-31T09:32:48;10.03;;;4.87;;
68449;SDS011;67758;39.572;2.652;2023-07-31T09:37:40;10.17;;;4.20;;
68449;SDS011;67758;39.572;2.652;2023-07-31T09:40:06;9.90;;;4.32;;
68449;SDS011;67758;39.572;2.652;2023-07-31T09:42:32;14.27;;;4.33;;
68449;SDS011;67758;39.572;2.652;2023-07-31T09:45:06;11.70;;;4.55;;
68449;SDS011;67758;39.572;2.652;2023-07-31T09:47:33;9.27;;;3.90;;
68449;SDS011;67758;39.572;2.652;2023-07-31T09:49:59;10.30;;;3.93;;
68449;SDS011;67758;39.572;2.652;2023-07-31T09:52:26;10.75;;;4.05;;
68449;SDS011;67758;39.572;2.652;2023-07-31T09:54:52;11.13;;;3.90;;
68449;SDS011;67758;39.572;2.652;2023-07-31T09:57:18;9.50;;;4.22;;
68449;SDS011;67758;39.572;2.652;2023-07-31T09:59:48;11.35;;;4.30;;
68449;SDS011;67758;39.572;2.652;2023-07-31T10:02:19;9.38;;;3.95;;
68449;SDS011;67758;39.572;2.652;2023-07-31T10:04:48;11.63;;;3.93;;
68449;SDS011;67758;39.572;2.652;2023-07-31T10:07:16;10.20;;;4.03;;
68449;SDS011;67758;39.572;2.652;2023-07-31T10:09:43;9.20;;;3.67;;
68449;SDS011;67758;39.572;2.652;2023-07-31T10:12:11;12.10;;;3.78;;
68449;SDS011;67758;39.572;2.652;2023-07-31T10:14:39;9.63;;;3.65;;
68449;SDS011;67758;39.572;2.652;2023-07-31T10:17:06;10.03;;;3.97;;
68449;SDS011;67758;39.572;2.652;2023-07-31T10:19:33;8.80;;;3.28;;
68449;SDS011;67758;39.572;2.652;2023-07-31T10:22:00;9.57;;;3.45;;
68449;SDS011;67758;39.572;2.652;2023-07-31T10:24:28;9.65;;;3.60;;
68449;SDS011;67758;39.572;2.652;2023-07-31T10:26:56;10.73;;;3.20;;
68449;SDS011;67758;39.572;2.652;2023-07-31T10:29:24;12.57;;;3.20;;
68449;SDS011;67758;39.572;2.652;2023-07-31T10:31:50;9.57;;;2.78;;
68449;SDS011;67758;39.572;2.652;2023-07-31T10:34:17;7.43;;;3.03;;
68449;SDS011;67758;39.572;2.652;2023-07-31T10:36:43;9.00;;;2.97;;
68449;SDS011;67758;39.572;2.652;2023-07-31T10:42:12;9.63;;;3.60;;
68449;SDS011;67758;39.572;2.652;2023-07-31T10:44:38;10.00;;;3.60;;
68449;SDS011;67758;39.572;2.652;2023-07-31T10:47:09;8.82;;;3.75;;
68449;SDS011;67758;39.572;2.652;2023-07-31T10:49:34;8.90;;;3.40;;
68449;SDS011;67758;39.572;2.652;2023-07-31T10:52:02;8.33;;;4.17;;
68449;SDS011;67758;39.572;2.652;2023-07-31T10:54:29;8.90;;;4.00;;
68449;SDS011;67758;39.572;2.652;2023-07-31T10:56:55;9.40;;;4.03;;
68449;SDS011;67758;39.572;2.652;2023-07-31T10:59:26;12.05;;;4.72;;
68449;SDS011;67758;39.572;2.652;2023-07-31T11:01:54;10.63;;;5.65;;
68449;SDS011;67758;39.572;2.652;2023-07-31T11:04:26;10.93;;;6.00;;
68449;SDS011;67758;39.572;2.652;2023-07-31T11:06:59;9.85;;;5.13;;
68449;SDS011;67758;39.572;2.652;2023-07-31T11:09:28;9.43;;;4.73;;
68449;SDS011;67758;39.572;2.652;2023-07-31T11:11:55;9.50;;;5.30;;
68449;SDS011;67758;39.572;2.652;2023-07-31T11:14:21;9.95;;;4.90;;
68449;SDS011;67758;39.572;2.652;2023-07-31T11:16:49;13.98;;;5.35;;
68449;SDS011;67758;39.572;2.652;2023-07-31T11:19:20;7.93;;;5.03;;
68449;SDS011;67758;39.572;2.652;2023-07-31T11:21:50;10.35;;;4.90;;
68449;SDS011;67758;39.572;2.652;2023-07-31T11:24:18;10.48;;;5.25;;
68449;SDS011;67758;39.572;2.652;2023-07-31T11:26:53;8.32;;;4.88;;
68449;SDS011;67758;39.572;2.652;2023-07-31T11:29:19;9.27;;;5.22;;
68449;SDS011;67758;39.572;2.652;2023-07-31T11:31:45;12.53;;;5.03;;
68449;SDS011;67758;39.572;2.652;2023-07-31T11:34:12;9.00;;;6.28;;
68449;SDS011;67758;39.572;2.652;2023-07-31T11:36:38;17.33;;;10.13;;
68449;SDS011;67758;39.572;2.652;2023-07-31T11:39:10;8.83;;;5.47;;
68449;SDS011;67758;39.572;2.652;2023-07-31T11:41:41;14.93;;;5.68;;
68449;SDS011;67758;39.572;2.652;2023-07-31T11:44:07;15.07;;;7.43;;
68449;SDS011;67758;39.572;2.652;2023-07-31T11:46:33;10.87;;;4.83;;
68449;SDS011;67758;39.572;2.652;2023-07-31T11:49:01;11.20;;;5.20;;
68449;SDS011;67758;39.572;2.652;2023-07-31T11:51:27;10.30;;;5.90;;
68449;SDS011;67758;39.572;2.652;2023-07-31T11:53:56;9.57;;;5.43;;
68449;SDS011;67758;39.572;2.652;2023-07-31T11:56:24;10.48;;;6.10;;
68449;SDS011;67758;39.572;2.652;2023-07-31T11:58:55;9.17;;;4.80;;
68449;SDS011;67758;39.572;2.652;2023-07-31T12:01:23;9.27;;;5.78;;
68449;SDS011;67758;39.572;2.652;2023-07-31T12:03:49;11.73;;;5.82;;
68449;SDS011;67758;39.572;2.652;2023-07-31T12:06:16;8.27;;;5.40;;
68449;SDS011;67758;39.572;2.652;2023-07-31T12:08:41;11.30;;;5.73;;
68449;SDS011;67758;39.572;2.652;2023-07-31T12:11:08;9.90;;;5.82;;
68449;SDS011;67758;39.572;2.652;2023-07-31T12:13:38;9.88;;;4.95;;
68449;SDS011;67758;39.572;2.652;2023-07-31T12:16:04;8.50;;;4.60;;
68449;SDS011;67758;39.572;2.652;2023-07-31T12:18:33;8.05;;;5.38;;
68449;SDS011;67758;39.572;2.652;2023-07-31T12:21:01;13.23;;;4.47;;
68449;SDS011;67758;39.572;2.652;2023-07-31T12:23:30;9.00;;;5.10;;
68449;SDS011;67758;39.572;2.652;2023-07-31T12:28:29;9.68;;;4.75;;
68449;SDS011;67758;39.572;2.652;2023-07-31T12:30:58;12.55;;;6.53;;
68449;SDS011;67758;39.572;2.652;2023-07-31T12:33:30;13.93;;;7.00;;
68449;SDS011;67758;39.572;2.652;2023-07-31T12:35:57;11.45;;;5.78;;
68449;SDS011;67758;39.572;2.652;2023-07-31T12:38:23;8.30;;;5.28;;
68449;SDS011;67758;39.572;2.652;2023-07-31T12:40:49;8.23;;;5.27;;
68449;SDS011;67758;39.572;2.652;2023-07-31T12:43:15;10.82;;;5.57;;
68449;SDS011;67758;39.572;2.652;2023-07-31T12:45:41;9.82;;;4.97;;
68449;SDS011;67758;39.572;2.652;2023-07-31T12:48:06;10.30;;;4.50;;
68449;SDS011;67758;39.572;2.652;2023-07-31T12:50:32;9.73;;;5.30;;
68449;SDS011;67758;39.572;2.652;2023-07-31T12:52:57;9.75;;;4.45;;
68449;SDS011;67758;39.572;2.652;2023-07-31T12:55:23;10.13;;;4.37;;
68449;SDS011;67758;39.572;2.652;2023-07-31T12:57:49;10.57;;;4.68;;
68449;SDS011;67758;39.572;2.652;2023-07-31T13:00:15;9.18;;;4.68;;
68449;SDS011;67758;39.572;2.652;2023-07-31T13:02:41;8.93;;;4.90;;
68449;SDS011;67758;39.572;2.652;2023-07-31T13:05:07;11.43;;;4.90;;
68449;SDS011;67758;39.572;2.652;2023-07-31T13:07:33;9.95;;;4.75;;
68449;SDS011;67758;39.572;2.652;2023-07-31T13:09:58;8.63;;;4.77;;
68449;SDS011;67758;39.572;2.652;2023-07-31T13:12:24;10.82;;;4.82;;
68449;SDS011;67758;39.572;2.652;2023-07-31T13:14:50;9.60;;;4.55;;
68449;SDS011;67758;39.572;2.652;2023-07-31T13:17:16;7.20;;;4.13;;
68449;SDS011;67758;39.572;2.652;2023-07-31T13:19:42;9.30;;;5.30;;
68449;SDS011;67758;39.572;2.652;2023-07-31T13:22:08;12.38;;;5.93;;
68449;SDS011;67758;39.572;2.652;2023-07-31T13:24:33;11.73;;;4.73;;
68449;SDS011;67758;39.572;2.652;2023-07-31T13:26:59;11.82;;;5.28;;
68449;SDS011;67758;39.572;2.652;2023-07-31T13:29:25;10.45;;;4.75;;
68449;SDS011;67758;39.572;2.652;2023-07-31T13:31:51;9.83;;;4.77;;
68449;SDS011;67758;39.572;2.652;2023-07-31T13:34:17;11.40;;;4.10;;
68449;SDS011;67758;39.572;2.652;2023-07-31T13:36:43;11.83;;;4.50;;
68449;SDS011;67758;39.572;2.652;2023-07-31T13:39:09;10.85;;;4.55;;
68449;SDS011;67758;39.572;2.652;2023-07-31T13:41:35;8.15;;;4.57;;
68449;SDS011;67758;39.572;2.652;2023-07-31T13:44:00;8.73;;;5.73;;
68449;SDS011;67758;39.572;2.652;2023-07-31T13:46:26;12.83;;;5.70;;
68449;SDS011;67758;39.572;2.652;2023-07-31T13:48:51;11.65;;;5.72;;
68449;SDS011;67758;39.572;2.652;2023-07-31T13:51:20;13.48;;;4.93;;
68449;SDS011;67758;39.572;2.652;2023-07-31T13:53:49;13.50;;;5.40;;
68449;SDS011;67758;39.572;2.652;2023-07-31T13:56:14;9.90;;;4.30;;
68449;SDS011;67758;39.572;2.652;2023-07-31T13:58:40;10.20;;;4.97;;
68449;SDS011;67758;39.572;2.652;2023-07-31T14:01:05;13.93;;;4.70;;
68449;SDS011;67758;39.572;2.652;2023-07-31T14:03:31;7.43;;;4.03;;
68449;SDS011;67758;39.572;2.652;2023-07-31T14:05:56;11.73;;;4.30;;
68449;SDS011;67758;39.572;2.652;2023-07-31T14:08:22;8.37;;;4.20;;
68449;SDS011;67758;39.572;2.652;2023-07-31T14:10:48;8.60;;;4.15;;
68449;SDS011;67758;39.572;2.652;2023-07-31T14:13:13;10.80;;;4.07;;
68449;SDS011;67758;39.572;2.652;2023-07-31T14:15:41;10.30;;;4.10;;
68449;SDS011;67758;39.572;2.652;2023-07-31T14:18:07;10.15;;;4.10;;
68449;SDS011;67758;39.572;2.652;2023-07-31T14:20:33;10.32;;;4.70;;
68449;SDS011;67758;39.572;2.652;2023-07-31T14:22:58;9.25;;;4.70;;
68449;SDS011;67758;39.572;2.652;2023-07-31T14:25:24;8.77;;;4.77;;
68449;SDS011;67758;39.572;2.652;2023-07-31T14:27:50;11.50;;;4.75;;
68449;SDS011;67758;39.572;2.652;2023-07-31T14:30:15;10.30;;;4.67;;
68449;SDS011;67758;39.572;2.652;2023-07-31T14:32:42;10.20;;;5.72;;
68449;SDS011;67758;39.572;2.652;2023-07-31T14:35:07;6.57;;;4.93;;
68449;SDS011;67758;39.572;2.652;2023-07-31T14:37:37;7.80;;;5.30;;
68449;SDS011;67758;39.572;2.652;2023-07-31T14:40:03;9.87;;;4.93;;
68449;SDS011;67758;39.572;2.652;2023-07-31T14:42:29;8.57;;;5.32;;
68449;SDS011;67758;39.572;2.652;2023-07-31T14:44:55;11.05;;;5.57;;
68449;SDS011;67758;39.572;2.652;2023-07-31T14:47:21;11.57;;;5.03;;
68449;SDS011;67758;39.572;2.652;2023-07-31T14:49:46;9.23;;;5.00;;